sensor_id;sensor_type;location;lat;lon;timestamp;temperature;humidity
8152;DHT22;4117;53.622;9.958;2023-06-24T00:00:00;16.60;1.00
8152;DHT22;4117;53.622;9.958;2023-06-24T00:02:28;16.60;1.00
8152;DHT22;4117;53.622;9.958;2023-06-24T00:04:55;16.60;1.00
8152;DHT22;4117;53.622;9.958;2023-06-24T00:07:25;16.60;1.00
8152;DHT22;4117;53.622;9.958;2023-06-24T00:09:52;16.50;1.00
8152;DHT22;4117;53.622;9.958;2023-06-24T00:12:19;16.50;1.00
8152;DHT22;4117;53.622;9.958;2023-06-24T00:14:46;16.40;1.00
8152;DHT22;4117;53.622;9.958;2023-06-24T00:17:14;16.40;1.00
8152;DHT22;4117;53.622;9.958;2023-06-24T00:19:44;16.30;1.00
8152;DHT22;4117;53.622;9.958;2023-06-24T00:22:11;16.30;1.00
8152;DHT22;4117;53.622;9.958;2023-06-24T00:24:38;16.30;1.00
8152;DHT22;4117;53.622;9.958;2023-06-24T00:27:06;16.20;1.00
8152;DHT22;4117;53.622;9.958;2023-06-24T00:29:32;16.20;1.00
8152;DHT22;4117;53.622;9.958;2023-06-24T00:31:59;16.20;1.00
8152;DHT22;4117;53.622;9.958;2023-06-24T00:34:26;16.20;1.00
8152;DHT22;4117;53.622;9.958;2023-06-24T00:36:55;16.10;1.00
8152;DHT22;4117;53.622;9.958;2023-06-24T00:39:22;16.10;1.00
8152;DHT22;4117;53.622;9.958;2023-06-24T00:41:49;16.10;1.00
8152;DHT22;4117;53.622;9.958;2023-06-24T00:44:16;16.00;1.00
8152;DHT22;4117;53.622;9.958;2023-06-24T00:46:43;16.00;1.00
8152;DHT22;4117;53.622;9.958;2023-06-24T00:49:10;15.90;1.00
8152;DHT22;4117;53.622;9.958;2023-06-24T00:51:41;15.90;1.00
8152;DHT22;4117;53.622;9.958;2023-06-24T00:54:14;15.80;1.00
8152;DHT22;4117;53.622;9.958;2023-06-24T00:56:41;15.80;1.00
8152;DHT22;4117;53.622;9.958;2023-06-24T00:59:10;15.80;1.00
8152;DHT22;4117;53.622;9.958;2023-06-24T01:01:40;15.80;1.00
8152;DHT22;4117;53.622;9.958;2023-06-24T01:04:07;15.70;1.00
8152;DHT22;4117;53.622;9.958;2023-06-24T01:06:35;15.70;1.00
8152;DHT22;4117;53.622;9.958;2023-06-24T01:09:09;15.60;1.00
8152;DHT22;4117;53.622;9.958;2023-06-24T01:11:38;15.60;1.00
8152;DHT22;4117;53.622;9.958;2023-06-24T01:14:05;15.60;1.00
8152;DHT22;4117;53.622;9.958;2023-06-24T01:16:39;15.50;1.00
8152;DHT22;4117;53.622;9.958;2023-06-24T01:19:21;15.50;1.00
8152;DHT22;4117;53.622;9.958;2023-06-24T01:22:04;15.50;1.00
8152;DHT22;4117;53.622;9.958;2023-06-24T01:24:50;15.40;1.00
8152;DHT22;4117;53.622;9.958;2023-06-24T01:27:44;15.40;1.00
8152;DHT22;4117;53.622;9.958;2023-06-24T01:30:35;15.40;1.00
8152;DHT22;4117;53.622;9.958;2023-06-24T01:33:11;15.30;1.00
8152;DHT22;4117;53.622;9.958;2023-06-24T01:35:41;15.30;1.00
8152;DHT22;4117;53.622;9.958;2023-06-24T01:38:15;15.30;1.00
8152;DHT22;4117;53.622;9.958;2023-06-24T01:41:03;15.20;1.00
8152;DHT22;4117;53.622;9.958;2023-06-24T01:43:30;15.20;1.00
8152;DHT22;4117;53.622;9.958;2023-06-24T01:45:59;15.20;1.00
8152;DHT22;4117;53.622;9.958;2023-06-24T01:48:28;15.20;1.00
8152;DHT22;4117;53.622;9.958;2023-06-24T01:51:00;15.10;1.00
8152;DHT22;4117;53.622;9.958;2023-06-24T01:53:28;15.10;1.00
8152;DHT22;4117;53.622;9.958;2023-06-24T01:55:58;15.10;1.00
8152;DHT22;4117;53.622;9.958;2023-06-24T01:58:27;15.00;1.00
8152;DHT22;4117;53.622;9.958;2023-06-24T02:00:56;15.00;1.00
8152;DHT22;4117;53.622;9.958;2023-06-24T02:03:24;15.00;1.00
8152;DHT22;4117;53.622;9.958;2023-06-24T02:05:54;14.90;1.00
8152;DHT22;4117;53.622;9.958;2023-06-24T02:08:23;14.90;1.00
8152;DHT22;4117;53.622;9.958;2023-06-24T02:10:51;14.90;1.00
8152;DHT22;4117;53.622;9.958;2023-06-24T02:13:20;14.90;1.00
8152;DHT22;4117;53.622;9.958;2023-06-24T02:15:47;14.80;1.00
8152;DHT22;4117;53.622;9.958;2023-06-24T02:18:16;14.80;1.00
8152;DHT22;4117;53.622;9.958;2023-06-24T02:20:44;14.70;1.00
8152;DHT22;4117;53.622;9.958;2023-06-24T02:23:14;14.70;1.00
8152;DHT22;4117;53.622;9.958;2023-06-24T02:25:42;14.70;1.00
8152;DHT22;4117;53.622;9.958;2023-06-24T02:28:09;14.70;1.00
8152;DHT22;4117;53.622;9.958;2023-06-24T02:30:38;14.60;1.00
8152;DHT22;4117;53.622;9.958;2023-06-24T02:33:05;14.60;1.00
8152;DHT22;4117;53.622;9.958;2023-06-24T02:35:33;14.60;1.00
8152;DHT22;4117;53.622;9.958;2023-06-24T02:38:00;14.60;1.00
8152;DHT22;4117;53.622;9.958;2023-06-24T02:40:30;14.50;1.00
8152;DHT22;4117;53.622;9.958;2023-06-24T02:42:59;14.50;1.00
8152;DHT22;4117;53.622;9.958;2023-06-24T02:45:26;14.50;1.00
8152;DHT22;4117;53.622;9.958;2023-06-24T02:47:55;14.50;1.00
8152;DHT22;4117;53.622;9.958;2023-06-24T02:50:23;14.40;1.00
8152;DHT22;4117;53.622;9.958;2023-06-24T02:52:51;14.40;1.00
8152;DHT22;4117;53.622;9.958;2023-06-24T02:55:19;14.30;1.00
8152;DHT22;4117;53.622;9.958;2023-06-24T02:57:47;14.30;1.00
8152;DHT22;4117;53.622;9.958;2023-06-24T03:00:16;14.30;1.00
8152;DHT22;4117;53.622;9.958;2023-06-24T03:02:45;14.30;1.00
8152;DHT22;4117;53.622;9.958;2023-06-24T03:05:13;14.30;1.00
8152;DHT22;4117;53.622;9.958;2023-06-24T03:07:41;14.30;1.00
8152;DHT22;4117;53.622;9.958;2023-06-24T03:10:09;14.20;1.00
8152;DHT22;4117;53.622;9.958;2023-06-24T03:12:36;14.20;1.00
8152;DHT22;4117;53.622;9.958;2023-06-24T03:15:05;14.20;1.00
8152;DHT22;4117;53.622;9.958;2023-06-24T03:17:32;14.20;1.00
8152;DHT22;4117;53.622;9.958;2023-06-24T03:19:59;14.10;1.00
8152;DHT22;4117;53.622;9.958;2023-06-24T03:22:26;14.10;1.00
8152;DHT22;4117;53.622;9.958;2023-06-24T03:24:53;14.10;1.00
8152;DHT22;4117;53.622;9.958;2023-06-24T03:27:19;14.10;1.00
8152;DHT22;4117;53.622;9.958;2023-06-24T03:29:46;14.10;1.00
8152;DHT22;4117;53.622;9.958;2023-06-24T03:32:15;14.00;1.00
8152;DHT22;4117;53.622;9.958;2023-06-24T03:34:42;14.00;1.00
8152;DHT22;4117;53.622;9.958;2023-06-24T03:37:09;14.00;1.00
8152;DHT22;4117;53.622;9.958;2023-06-24T03:39:36;14.00;1.00
8152;DHT22;4117;53.622;9.958;2023-06-24T03:42:03;14.10;1.00
8152;DHT22;4117;53.622;9.958;2023-06-24T03:44:30;14.10;1.00
8152;DHT22;4117;53.622;9.958;2023-06-24T03:46:57;14.10;1.00
8152;DHT22;4117;53.622;9.958;2023-06-24T03:49:25;14.00;1.00
8152;DHT22;4117;53.622;9.958;2023-06-24T03:51:52;14.10;1.00
8152;DHT22;4117;53.622;9.958;2023-06-24T03:54:19;14.10;1.00
8152;DHT22;4117;53.622;9.958;2023-06-24T03:56:46;14.10;1.00
8152;DHT22;4117;53.622;9.958;2023-06-24T03:59:13;14.10;1.00
8152;DHT22;4117;53.622;9.958;2023-06-24T04:01:40;14.20;1.00
8152;DHT22;4117;53.622;9.958;2023-06-24T04:04:07;14.20;1.00
8152;DHT22;4117;53.622;9.958;2023-06-24T04:06:35;14.20;1.00
8152;DHT22;4117;53.622;9.958;2023-06-24T04:09:02;14.20;1.00
8152;DHT22;4117;53.622;9.958;2023-06-24T04:11:29;14.30;1.00
8152;DHT22;4117;53.622;9.958;2023-06-24T04:13:56;14.40;1.00
8152;DHT22;4117;53.622;9.958;2023-06-24T04:16:23;14.40;1.00
8152;DHT22;4117;53.622;9.958;2023-06-24T04:18:49;14.40;1.00
8152;DHT22;4117;53.622;9.958;2023-06-24T04:21:16;14.50;1.00
8152;DHT22;4117;53.622;9.958;2023-06-24T04:23:45;14.50;1.00
8152;DHT22;4117;53.622;9.958;2023-06-24T04:26:12;14.50;1.00
8152;DHT22;4117;53.622;9.958;2023-06-24T04:28:39;14.60;1.00
8152;DHT22;4117;53.622;9.958;2023-06-24T04:31:06;14.70;1.00
8152;DHT22;4117;53.622;9.958;2023-06-24T04:33:33;14.70;1.00
8152;DHT22;4117;53.622;9.958;2023-06-24T04:36:00;14.80;1.00
8152;DHT22;4117;53.622;9.958;2023-06-24T04:38:27;14.80;1.00
8152;DHT22;4117;53.622;9.958;2023-06-24T04:40:55;14.80;1.00
8152;DHT22;4117;53.622;9.958;2023-06-24T04:43:22;14.90;1.00
8152;DHT22;4117;53.622;9.958;2023-06-24T04:45:49;14.90;1.00
8152;DHT22;4117;53.622;9.958;2023-06-24T04:48:16;14.90;1.00
8152;DHT22;4117;53.622;9.958;2023-06-24T04:50:43;15.00;1.00
8152;DHT22;4117;53.622;9.958;2023-06-24T04:53:10;15.00;1.00
8152;DHT22;4117;53.622;9.958;2023-06-24T04:55:37;15.00;1.00
8152;DHT22;4117;53.622;9.958;2023-06-24T04:58:05;15.10;1.00
8152;DHT22;4117;53.622;9.958;2023-06-24T05:00:32;15.10;1.00
8152;DHT22;4117;53.622;9.958;2023-06-24T05:03:09;15.10;1.00
8152;DHT22;4117;53.622;9.958;2023-06-24T05:05:36;15.20;1.00
8152;DHT22;4117;53.622;9.958;2023-06-24T05:08:03;15.20;1.00
8152;DHT22;4117;53.622;9.958;2023-06-24T05:10:30;15.30;1.00
8152;DHT22;4117;53.622;9.958;2023-06-24T05:12:59;15.30;1.00
8152;DHT22;4117;53.622;9.958;2023-06-24T05:15:26;15.40;1.00
8152;DHT22;4117;53.622;9.958;2023-06-24T05:17:53;15.50;1.00
8152;DHT22;4117;53.622;9.958;2023-06-24T05:20:21;15.50;1.00
8152;DHT22;4117;53.622;9.958;2023-06-24T05:22:48;15.50;1.00
8152;DHT22;4117;53.622;9.958;2023-06-24T05:25:15;15.60;1.00
8152;DHT22;4117;53.622;9.958;2023-06-24T05:27:42;15.60;1.00
8152;DHT22;4117;53.622;9.958;2023-06-24T05:30:10;15.60;1.00
8152;DHT22;4117;53.622;9.958;2023-06-24T05:32:38;15.70;1.00
8152;DHT22;4117;53.622;9.958;2023-06-24T05:35:06;15.70;1.00
8152;DHT22;4117;53.622;9.958;2023-06-24T05:37:34;15.70;1.00
8152;DHT22;4117;53.622;9.958;2023-06-24T05:40:01;15.80;1.00
8152;DHT22;4117;53.622;9.958;2023-06-24T05:42:30;15.80;1.00
8152;DHT22;4117;53.622;9.958;2023-06-24T05:44:57;15.80;1.00
8152;DHT22;4117;53.622;9.958;2023-06-24T05:47:24;15.80;1.00
8152;DHT22;4117;53.622;9.958;2023-06-24T05:49:51;15.90;1.00
8152;DHT22;4117;53.622;9.958;2023-06-24T05:52:18;15.90;1.00
8152;DHT22;4117;53.622;9.958;2023-06-24T05:54:46;16.00;1.00
8152;DHT22;4117;53.622;9.958;2023-06-24T05:57:13;16.00;1.00
8152;DHT22;4117;53.622;9.958;2023-06-24T05:59:40;16.10;1.00
8152;DHT22;4117;53.622;9.958;2023-06-24T06:02:07;16.10;1.00
8152;DHT22;4117;53.622;9.958;2023-06-24T06:04:33;16.10;1.00
8152;DHT22;4117;53.622;9.958;2023-06-24T06:07:01;16.10;1.00
8152;DHT22;4117;53.622;9.958;2023-06-24T06:09:28;16.20;1.00
8152;DHT22;4117;53.622;9.958;2023-06-24T06:11:57;16.30;1.00
8152;DHT22;4117;53.622;9.958;2023-06-24T06:14:23;16.30;1.00
8152;DHT22;4117;53.622;9.958;2023-06-24T06:16:50;16.30;1.00
8152;DHT22;4117;53.622;9.958;2023-06-24T06:19:17;16.30;1.00
8152;DHT22;4117;53.622;9.958;2023-06-24T06:21:44;16.40;1.00
8152;DHT22;4117;53.622;9.958;2023-06-24T06:24:11;16.40;1.00
8152;DHT22;4117;53.622;9.958;2023-06-24T06:26:42;16.50;1.00
8152;DHT22;4117;53.622;9.958;2023-06-24T06:29:11;16.50;1.00
8152;DHT22;4117;53.622;9.958;2023-06-24T06:31:38;16.50;1.00
8152;DHT22;4117;53.622;9.958;2023-06-24T06:34:05;16.60;1.00
8152;DHT22;4117;53.622;9.958;2023-06-24T06:36:32;16.60;1.00
8152;DHT22;4117;53.622;9.958;2023-06-24T06:38:58;16.70;1.00
8152;DHT22;4117;53.622;9.958;2023-06-24T06:41:25;16.60;1.00
8152;DHT22;4117;53.622;9.958;2023-06-24T06:43:53;16.70;1.00
8152;DHT22;4117;53.622;9.958;2023-06-24T06:46:21;16.70;1.00
8152;DHT22;4117;53.622;9.958;2023-06-24T06:48:48;16.70;1.00
8152;DHT22;4117;53.622;9.958;2023-06-24T06:51:16;16.70;1.00
8152;DHT22;4117;53.622;9.958;2023-06-24T06:53:44;16.80;1.00
8152;DHT22;4117;53.622;9.958;2023-06-24T06:56:17;16.90;1.00
8152;DHT22;4117;53.622;9.958;2023-06-24T06:58:43;16.90;1.00
8152;DHT22;4117;53.622;9.958;2023-06-24T07:01:10;17.00;1.00
8152;DHT22;4117;53.622;9.958;2023-06-24T07:03:39;17.00;1.00
8152;DHT22;4117;53.622;9.958;2023-06-24T07:06:06;17.00;1.00
8152;DHT22;4117;53.622;9.958;2023-06-24T07:08:33;17.10;1.00
8152;DHT22;4117;53.622;9.958;2023-06-24T07:11:01;17.10;1.00
8152;DHT22;4117;53.622;9.958;2023-06-24T07:13:27;17.20;1.00
8152;DHT22;4117;53.622;9.958;2023-06-24T07:15:55;17.20;1.00
8152;DHT22;4117;53.622;9.958;2023-06-24T07:18:22;17.30;1.00
8152;DHT22;4117;53.622;9.958;2023-06-24T07:20:50;17.30;1.00
8152;DHT22;4117;53.622;9.958;2023-06-24T07:23:17;17.30;1.00
8152;DHT22;4117;53.622;9.958;2023-06-24T07:25:44;17.30;1.00
8152;DHT22;4117;53.622;9.958;2023-06-24T07:28:10;17.40;1.00
8152;DHT22;4117;53.622;9.958;2023-06-24T07:30:37;17.50;1.00
8152;DHT22;4117;53.622;9.958;2023-06-24T07:33:04;17.50;1.00
8152;DHT22;4117;53.622;9.958;2023-06-24T07:35:32;17.60;1.00
8152;DHT22;4117;53.622;9.958;2023-06-24T07:38:00;17.60;1.00
8152;DHT22;4117;53.622;9.958;2023-06-24T07:40:27;17.60;1.00
8152;DHT22;4117;53.622;9.958;2023-06-24T07:42:54;17.70;1.00
8152;DHT22;4117;53.622;9.958;2023-06-24T07:45:21;17.70;1.00
8152;DHT22;4117;53.622;9.958;2023-06-24T07:47:49;17.80;1.00
8152;DHT22;4117;53.622;9.958;2023-06-24T07:50:16;17.80;1.00
8152;DHT22;4117;53.622;9.958;2023-06-24T07:52:43;17.90;1.00
8152;DHT22;4117;53.622;9.958;2023-06-24T07:55:11;17.90;1.00
8152;DHT22;4117;53.622;9.958;2023-06-24T07:57:38;18.00;1.00
8152;DHT22;4117;53.622;9.958;2023-06-24T08:00:08;18.00;1.00
8152;DHT22;4117;53.622;9.958;2023-06-24T08:02:36;18.10;1.00
8152;DHT22;4117;53.622;9.958;2023-06-24T08:05:04;18.00;1.00
8152;DHT22;4117;53.622;9.958;2023-06-24T08:07:31;18.10;1.00
8152;DHT22;4117;53.622;9.958;2023-06-24T08:09:58;18.10;1.00
8152;DHT22;4117;53.622;9.958;2023-06-24T08:12:26;18.10;1.00
8152;DHT22;4117;53.622;9.958;2023-06-24T08:14:53;18.10;1.00
8152;DHT22;4117;53.622;9.958;2023-06-24T08:17:20;18.10;1.00
8152;DHT22;4117;53.622;9.958;2023-06-24T08:19:48;18.20;1.00
8152;DHT22;4117;53.622;9.958;2023-06-24T08:22:15;18.20;1.00
8152;DHT22;4117;53.622;9.958;2023-06-24T08:24:42;18.30;1.00
8152;DHT22;4117;53.622;9.958;2023-06-24T08:27:23;18.30;1.00
8152;DHT22;4117;53.622;9.958;2023-06-24T08:29:52;18.40;1.00
8152;DHT22;4117;53.622;9.958;2023-06-24T08:32:19;18.50;1.00
8152;DHT22;4117;53.622;9.958;2023-06-24T08:34:45;18.50;1.00
8152;DHT22;4117;53.622;9.958;2023-06-24T08:37:13;18.50;1.00
8152;DHT22;4117;53.622;9.958;2023-06-24T08:39:40;18.50;1.00
8152;DHT22;4117;53.622;9.958;2023-06-24T08:42:07;18.50;1.00
8152;DHT22;4117;53.622;9.958;2023-06-24T08:44:34;18.60;1.00
8152;DHT22;4117;53.622;9.958;2023-06-24T08:47:03;18.60;1.00
8152;DHT22;4117;53.622;9.958;2023-06-24T08:49:31;18.70;1.00
8152;DHT22;4117;53.622;9.958;2023-06-24T08:52:02;18.70;1.00
8152;DHT22;4117;53.622;9.958;2023-06-24T08:54:30;18.80;1.00
8152;DHT22;4117;53.622;9.958;2023-06-24T08:57:00;18.80;1.00
8152;DHT22;4117;53.622;9.958;2023-06-24T08:59:30;18.90;1.00
8152;DHT22;4117;53.622;9.958;2023-06-24T09:01:57;18.80;1.00
8152;DHT22;4117;53.622;9.958;2023-06-24T09:04:26;18.90;1.00
8152;DHT22;4117;53.622;9.958;2023-06-24T09:06:53;18.80;1.00
8152;DHT22;4117;53.622;9.958;2023-06-24T09:09:21;18.90;1.00
8152;DHT22;4117;53.622;9.958;2023-06-24T09:11:52;18.90;1.00
8152;DHT22;4117;53.622;9.958;2023-06-24T09:14:19;19.00;1.00
8152;DHT22;4117;53.622;9.958;2023-06-24T09:16:51;19.10;1.00
8152;DHT22;4117;53.622;9.958;2023-06-24T09:19:20;19.10;1.00
8152;DHT22;4117;53.622;9.958;2023-06-24T09:21:49;19.20;1.00
8152;DHT22;4117;53.622;9.958;2023-06-24T09:24:17;19.30;1.00
8152;DHT22;4117;53.622;9.958;2023-06-24T09:26:44;19.40;1.00
8152;DHT22;4117;53.622;9.958;2023-06-24T09:29:12;19.40;1.00
8152;DHT22;4117;53.622;9.958;2023-06-24T09:31:47;19.40;1.00
8152;DHT22;4117;53.622;9.958;2023-06-24T09:34:14;19.40;1.00
8152;DHT22;4117;53.622;9.958;2023-06-24T09:36:45;19.40;1.00
8152;DHT22;4117;53.622;9.958;2023-06-24T09:39:13;19.50;1.00
8152;DHT22;4117;53.622;9.958;2023-06-24T09:41:41;19.50;1.00
8152;DHT22;4117;53.622;9.958;2023-06-24T09:44:10;19.60;1.00
8152;DHT22;4117;53.622;9.958;2023-06-24T09:46:38;19.70;1.00
8152;DHT22;4117;53.622;9.958;2023-06-24T09:49:04;19.60;1.00
8152;DHT22;4117;53.622;9.958;2023-06-24T09:51:34;19.70;1.00
8152;DHT22;4117;53.622;9.958;2023-06-24T09:54:03;19.70;1.00
8152;DHT22;4117;53.622;9.958;2023-06-24T09:56:34;19.80;1.00
8152;DHT22;4117;53.622;9.958;2023-06-24T09:59:03;19.80;1.00
8152;DHT22;4117;53.622;9.958;2023-06-24T10:01:31;19.80;1.00
8152;DHT22;4117;53.622;9.958;2023-06-24T10:03:58;19.80;1.00
8152;DHT22;4117;53.622;9.958;2023-06-24T10:06:27;19.90;1.00
8152;DHT22;4117;53.622;9.958;2023-06-24T10:08:55;20.00;1.00
8152;DHT22;4117;53.622;9.958;2023-06-24T10:11:22;20.10;1.00
8152;DHT22;4117;53.622;9.958;2023-06-24T10:13:51;20.20;1.00
8152;DHT22;4117;53.622;9.958;2023-06-24T10:16:18;20.10;1.00
8152;DHT22;4117;53.622;9.958;2023-06-24T10:18:46;20.30;1.00
8152;DHT22;4117;53.622;9.958;2023-06-24T10:21:15;20.20;1.00
8152;DHT22;4117;53.622;9.958;2023-06-24T10:23:50;20.20;1.00
8152;DHT22;4117;53.622;9.958;2023-06-24T10:26:22;20.20;1.00
8152;DHT22;4117;53.622;9.958;2023-06-24T10:29:09;20.20;1.00
8152;DHT22;4117;53.622;9.958;2023-06-24T10:31:56;20.30;1.00
8152;DHT22;4117;53.622;9.958;2023-06-24T10:34:38;20.40;1.00
8152;DHT22;4117;53.622;9.958;2023-06-24T10:37:09;20.40;1.00
8152;DHT22;4117;53.622;9.958;2023-06-24T10:39:47;20.40;1.00
8152;DHT22;4117;53.622;9.958;2023-06-24T10:42:37;20.60;1.00
8152;DHT22;4117;53.622;9.958;2023-06-24T10:45:23;20.60;1.00
8152;DHT22;4117;53.622;9.958;2023-06-24T10:47:51;20.70;1.00
8152;DHT22;4117;53.622;9.958;2023-06-24T10:50:20;20.80;1.00
8152;DHT22;4117;53.622;9.958;2023-06-24T10:52:48;20.70;1.00
8152;DHT22;4117;53.622;9.958;2023-06-24T10:55:16;20.80;1.00
8152;DHT22;4117;53.622;9.958;2023-06-24T10:57:44;20.90;1.00
8152;DHT22;4117;53.622;9.958;2023-06-24T11:00:12;21.00;1.00
8152;DHT22;4117;53.622;9.958;2023-06-24T11:02:40;21.10;1.00
8152;DHT22;4117;53.622;9.958;2023-06-24T11:05:08;21.10;1.00
8152;DHT22;4117;53.622;9.958;2023-06-24T11:07:36;21.00;1.00
8152;DHT22;4117;53.622;9.958;2023-06-24T11:10:05;21.00;1.00
8152;DHT22;4117;53.622;9.958;2023-06-24T11:12:33;21.10;1.00
8152;DHT22;4117;53.622;9.958;2023-06-24T11:15:02;21.20;1.00
8152;DHT22;4117;53.622;9.958;2023-06-24T11:17:29;21.30;1.00
8152;DHT22;4117;53.622;9.958;2023-06-24T11:19:58;21.30;1.00
8152;DHT22;4117;53.622;9.958;2023-06-24T11:22:26;21.50;1.00
8152;DHT22;4117;53.622;9.958;2023-06-24T11:24:54;21.60;1.00
8152;DHT22;4117;53.622;9.958;2023-06-24T11:27:25;21.70;1.00
8152;DHT22;4117;53.622;9.958;2023-06-24T11:29:53;21.60;1.00
8152;DHT22;4117;53.622;9.958;2023-06-24T11:32:20;21.70;1.00
8152;DHT22;4117;53.622;9.958;2023-06-24T11:34:47;21.80;1.00
8152;DHT22;4117;53.622;9.958;2023-06-24T11:37:18;21.90;1.00
8152;DHT22;4117;53.622;9.958;2023-06-24T11:39:45;22.00;1.00
8152;DHT22;4117;53.622;9.958;2023-06-24T11:42:28;22.20;1.00
8152;DHT22;4117;53.622;9.958;2023-06-24T11:44:59;22.20;1.00
8152;DHT22;4117;53.622;9.958;2023-06-24T11:47:27;22.20;1.00
8152;DHT22;4117;53.622;9.958;2023-06-24T11:49:56;22.20;1.00
8152;DHT22;4117;53.622;9.958;2023-06-24T11:52:32;22.40;1.00
8152;DHT22;4117;53.622;9.958;2023-06-24T11:54:59;22.40;1.00
8152;DHT22;4117;53.622;9.958;2023-06-24T11:57:48;22.30;1.00
8152;DHT22;4117;53.622;9.958;2023-06-24T12:00:15;22.50;1.00
8152;DHT22;4117;53.622;9.958;2023-06-24T12:02:42;22.60;1.00
8152;DHT22;4117;53.622;9.958;2023-06-24T12:05:09;22.60;1.00
8152;DHT22;4117;53.622;9.958;2023-06-24T12:07:37;22.50;1.00
8152;DHT22;4117;53.622;9.958;2023-06-24T12:10:10;22.40;1.00
8152;DHT22;4117;53.622;9.958;2023-06-24T12:12:37;22.40;1.00
8152;DHT22;4117;53.622;9.958;2023-06-24T12:15:05;22.50;1.00
8152;DHT22;4117;53.622;9.958;2023-06-24T12:17:32;22.60;1.00
8152;DHT22;4117;53.622;9.958;2023-06-24T12:19:59;22.70;1.00
8152;DHT22;4117;53.622;9.958;2023-06-24T12:22:26;22.90;1.00
8152;DHT22;4117;53.622;9.958;2023-06-24T12:24:54;22.90;1.00
8152;DHT22;4117;53.622;9.958;2023-06-24T12:27:21;23.00;1.00
8152;DHT22;4117;53.622;9.958;2023-06-24T12:29:48;23.10;1.00
8152;DHT22;4117;53.622;9.958;2023-06-24T12:32:15;23.10;1.00
8152;DHT22;4117;53.622;9.958;2023-06-24T12:34:42;23.10;1.00
8152;DHT22;4117;53.622;9.958;2023-06-24T12:37:09;23.10;1.00
8152;DHT22;4117;53.622;9.958;2023-06-24T12:39:36;23.20;1.00
8152;DHT22;4117;53.622;9.958;2023-06-24T12:42:05;23.20;1.00
8152;DHT22;4117;53.622;9.958;2023-06-24T12:44:32;23.30;1.00
8152;DHT22;4117;53.622;9.958;2023-06-24T12:46:59;23.40;1.00
8152;DHT22;4117;53.622;9.958;2023-06-24T12:49:26;23.20;1.00
8152;DHT22;4117;53.622;9.958;2023-06-24T12:51:53;23.20;1.00
8152;DHT22;4117;53.622;9.958;2023-06-24T12:54:20;23.30;1.00
8152;DHT22;4117;53.622;9.958;2023-06-24T12:56:47;23.40;1.00
8152;DHT22;4117;53.622;9.958;2023-06-24T12:59:15;23.60;1.00
8152;DHT22;4117;53.622;9.958;2023-06-24T13:01:42;23.50;1.00
8152;DHT22;4117;53.622;9.958;2023-06-24T13:04:10;23.40;1.00
8152;DHT22;4117;53.622;9.958;2023-06-24T13:06:37;23.20;1.00
8152;DHT22;4117;53.622;9.958;2023-06-24T13:09:04;23.40;1.00
8152;DHT22;4117;53.622;9.958;2023-06-24T13:11:31;23.30;1.00
8152;DHT22;4117;53.622;9.958;2023-06-24T13:13:59;23.20;1.00
8152;DHT22;4117;53.622;9.958;2023-06-24T13:16:27;23.20;1.00
8152;DHT22;4117;53.622;9.958;2023-06-24T13:18:54;23.50;1.00
8152;DHT22;4117;53.622;9.958;2023-06-24T13:21:21;23.60;1.00
8152;DHT22;4117;53.622;9.958;2023-06-24T13:23:48;23.70;1.00
8152;DHT22;4117;53.622;9.958;2023-06-24T13:26:15;23.70;1.00
8152;DHT22;4117;53.622;9.958;2023-06-24T13:28:42;23.70;1.00
8152;DHT22;4117;53.622;9.958;2023-06-24T13:31:09;23.70;1.00
8152;DHT22;4117;53.622;9.958;2023-06-24T13:33:38;23.70;1.00
8152;DHT22;4117;53.622;9.958;2023-06-24T13:36:07;23.60;1.00
8152;DHT22;4117;53.622;9.958;2023-06-24T13:38:34;23.60;1.00
8152;DHT22;4117;53.622;9.958;2023-06-24T13:41:01;23.80;1.00
8152;DHT22;4117;53.622;9.958;2023-06-24T13:43:28;23.90;1.00
8152;DHT22;4117;53.622;9.958;2023-06-24T13:45:55;24.00;1.00
8152;DHT22;4117;53.622;9.958;2023-06-24T13:48:23;24.20;1.00
8152;DHT22;4117;53.622;9.958;2023-06-24T13:50:51;24.20;1.00
8152;DHT22;4117;53.622;9.958;2023-06-24T13:53:18;24.10;1.00
8152;DHT22;4117;53.622;9.958;2023-06-24T13:55:45;24.00;1.00
8152;DHT22;4117;53.622;9.958;2023-06-24T13:58:12;24.00;1.00
8152;DHT22;4117;53.622;9.958;2023-06-24T14:00:39;24.10;1.00
8152;DHT22;4117;53.622;9.958;2023-06-24T14:03:06;24.20;1.00
8152;DHT22;4117;53.622;9.958;2023-06-24T14:05:33;24.20;1.00
8152;DHT22;4117;53.622;9.958;2023-06-24T14:08:01;24.20;1.00
8152;DHT22;4117;53.622;9.958;2023-06-24T14:10:29;24.20;1.00
8152;DHT22;4117;53.622;9.958;2023-06-24T14:12:56;24.20;1.00
8152;DHT22;4117;53.622;9.958;2023-06-24T14:15:23;24.10;1.00
8152;DHT22;4117;53.622;9.958;2023-06-24T14:17:50;24.00;1.00
8152;DHT22;4117;53.622;9.958;2023-06-24T14:20:17;24.00;1.00
8152;DHT22;4117;53.622;9.958;2023-06-24T14:22:44;23.90;1.00
8152;DHT22;4117;53.622;9.958;2023-06-24T14:25:12;23.90;1.00
8152;DHT22;4117;53.622;9.958;2023-06-24T14:27:39;24.00;1.00
8152;DHT22;4117;53.622;9.958;2023-06-24T14:30:07;23.90;1.00
8152;DHT22;4117;53.622;9.958;2023-06-24T14:32:34;23.90;1.00
8152;DHT22;4117;53.622;9.958;2023-06-24T14:35:01;23.90;1.00
8152;DHT22;4117;53.622;9.958;2023-06-24T14:37:28;24.00;1.00
8152;DHT22;4117;53.622;9.958;2023-06-24T14:39:54;24.30;1.00
8152;DHT22;4117;53.622;9.958;2023-06-24T14:42:23;24.50;1.00
8152;DHT22;4117;53.622;9.958;2023-06-24T14:44:50;24.60;1.00
8152;DHT22;4117;53.622;9.958;2023-06-24T14:47:17;24.80;1.00
8152;DHT22;4117;53.622;9.958;2023-06-24T14:49:44;24.90;1.00
8152;DHT22;4117;53.622;9.958;2023-06-24T14:52:11;24.70;1.00
8152;DHT22;4117;53.622;9.958;2023-06-24T14:54:37;24.50;1.00
8152;DHT22;4117;53.622;9.958;2023-06-24T14:57:04;24.40;1.00
8152;DHT22;4117;53.622;9.958;2023-06-24T14:59:33;24.50;1.00
8152;DHT22;4117;53.622;9.958;2023-06-24T15:02:00;24.60;1.00
8152;DHT22;4117;53.622;9.958;2023-06-24T15:04:27;24.60;1.00
8152;DHT22;4117;53.622;9.958;2023-06-24T15:06:54;24.50;1.00
8152;DHT22;4117;53.622;9.958;2023-06-24T15:09:22;24.40;1.00
8152;DHT22;4117;53.622;9.958;2023-06-24T15:11:49;24.40;1.00
8152;DHT22;4117;53.622;9.958;2023-06-24T15:14:16;24.40;1.00
8152;DHT22;4117;53.622;9.958;2023-06-24T15:16:44;24.50;1.00
8152;DHT22;4117;53.622;9.958;2023-06-24T15:19:11;24.50;1.00
8152;DHT22;4117;53.622;9.958;2023-06-24T15:21:38;24.40;1.00
8152;DHT22;4117;53.622;9.958;2023-06-24T15:24:05;24.30;1.00
8152;DHT22;4117;53.622;9.958;2023-06-24T15:26:32;24.30;1.00
8152;DHT22;4117;53.622;9.958;2023-06-24T15:28:59;24.20;1.00
8152;DHT22;4117;53.622;9.958;2023-06-24T15:31:26;24.20;1.00
8152;DHT22;4117;53.622;9.958;2023-06-24T15:33:54;24.10;1.00
8152;DHT22;4117;53.622;9.958;2023-06-24T15:36:21;24.10;1.00
8152;DHT22;4117;53.622;9.958;2023-06-24T15:38:52;24.10;1.00
8152;DHT22;4117;53.622;9.958;2023-06-24T15:41:19;24.10;1.00
8152;DHT22;4117;53.622;9.958;2023-06-24T15:43:46;24.10;1.00
8152;DHT22;4117;53.622;9.958;2023-06-24T15:46:13;24.10;1.00
8152;DHT22;4117;53.622;9.958;2023-06-24T15:48:40;24.10;1.00
8152;DHT22;4117;53.622;9.958;2023-06-24T15:51:08;24.10;1.00
8152;DHT22;4117;53.622;9.958;2023-06-24T15:53:35;24.10;1.00
8152;DHT22;4117;53.622;9.958;2023-06-24T15:56:02;24.10;1.00
8152;DHT22;4117;53.622;9.958;2023-06-24T15:58:29;24.00;1.00
8152;DHT22;4117;53.622;9.958;2023-06-24T16:00:56;24.00;1.00
8152;DHT22;4117;53.622;9.958;2023-06-24T16:03:23;24.00;1.00
8152;DHT22;4117;53.622;9.958;2023-06-24T16:05:50;24.00;1.00
8152;DHT22;4117;53.622;9.958;2023-06-24T16:08:18;23.90;1.00
8152;DHT22;4117;53.622;9.958;2023-06-24T16:10:45;23.90;1.00
8152;DHT22;4117;53.622;9.958;2023-06-24T16:13:12;23.90;1.00
8152;DHT22;4117;53.622;9.958;2023-06-24T16:15:40;23.90;1.00
8152;DHT22;4117;53.622;9.958;2023-06-24T16:18:06;23.80;1.00
8152;DHT22;4117;53.622;9.958;2023-06-24T16:20:33;23.80;1.00
8152;DHT22;4117;53.622;9.958;2023-06-24T16:23:01;23.80;1.00